createdAt,value
2023-05-05T00:00:01.026Z,13.70
2023-05-05T00:02:34.112Z,13.70
2023-05-05T00:05:03.657Z,13.80
2023-05-05T00:07:34.239Z,13.80
2023-05-05T00:10:10.975Z,13.80
2023-05-05T00:12:43.179Z,13.80
2023-05-05T00:15:13.750Z,13.70
2023-05-05T00:17:44.853Z,13.70
2023-05-05T00:20:15.817Z,13.60
2023-05-05T00:22:48.844Z,13.60
2023-05-05T00:25:20.093Z,13.60
2023-05-05T00:27:49.210Z,13.60
2023-05-05T00:30:23.499Z,13.60
2023-05-05T00:32:52.914Z,13.50
2023-05-05T00:35:21.989Z,13.50
2023-05-05T00:37:50.750Z,13.50
2023-05-05T00:40:20.602Z,13.50
2023-05-05T00:42:51.320Z,13.50
2023-05-05T00:45:26.381Z,13.50
2023-05-05T00:47:55.538Z,13.50
2023-05-05T00:50:28.065Z,13.50
2023-05-05T00:53:08.216Z,13.40
2023-05-05T00:55:38.547Z,13.40
2023-05-05T00:58:07.246Z,13.40
2023-05-05T01:00:48.913Z,13.40
2023-05-05T01:03:19.399Z,13.40
2023-05-05T01:06:00.148Z,13.50
2023-05-05T01:08:41.741Z,13.60
2023-05-05T01:11:19.553Z,13.60
2023-05-05T01:13:57.861Z,13.60
2023-05-05T01:16:31.098Z,13.50
2023-05-05T01:19:12.745Z,13.50
2023-05-05T01:21:48.643Z,13.40
2023-05-05T01:24:52.175Z,13.40
2023-05-05T01:28:00.872Z,13.40
2023-05-05T01:31:00.399Z,13.20
2023-05-05T01:33:36.440Z,13.00
2023-05-05T01:36:09.416Z,13.00
2023-05-05T01:38:42.101Z,12.90
2023-05-05T01:41:19.709Z,12.90
2023-05-05T01:43:55.053Z,12.80
2023-05-05T01:46:28.200Z,12.80
2023-05-05T01:49:04.325Z,12.70
2023-05-05T01:51:34.943Z,12.70
2023-05-05T01:54:10.291Z,12.70
2023-05-05T01:56:43.703Z,12.70
2023-05-05T01:59:13.249Z,12.60
2023-05-05T02:01:44.805Z,12.60
2023-05-05T02:04:16.583Z,12.50
2023-05-05T02:06:52.675Z,12.50
2023-05-05T02:09:27.676Z,12.50
2023-05-05T02:11:59.604Z,12.50
2023-05-05T02:14:36.071Z,12.50
2023-05-05T02:17:09.651Z,12.60
2023-05-05T02:19:43.808Z,12.60
2023-05-05T02:22:15.703Z,12.70
2023-05-05T02:24:48.947Z,12.70
2023-05-05T02:27:23.961Z,12.80
2023-05-05T02:29:58.282Z,12.80
2023-05-05T02:32:33.397Z,12.80
2023-05-05T02:35:10.433Z,12.80
2023-05-05T02:37:48.437Z,12.80
2023-05-05T02:40:24.936Z,12.90
2023-05-05T02:42:58.437Z,12.90
2023-05-05T02:45:33.653Z,12.90
2023-05-05T02:48:04.540Z,12.80
2023-05-05T02:50:45.740Z,12.80
2023-05-05T02:53:27.351Z,12.80
2023-05-05T02:56:01.531Z,12.80
2023-05-05T02:58:43.556Z,12.80
2023-05-05T03:01:30.776Z,12.70
2023-05-05T03:04:08.403Z,12.60
2023-05-05T03:06:47.900Z,12.70
2023-05-05T03:09:28.765Z,12.80
2023-05-05T03:12:03.838Z,12.90
2023-05-05T03:14:42.461Z,12.90
2023-05-05T03:17:16.015Z,13.00
2023-05-05T03:19:46.471Z,12.90
2023-05-05T03:22:17.079Z,12.90
2023-05-05T03:24:51.561Z,12.90
2023-05-05T03:27:24.600Z,12.90
2023-05-05T03:29:53.903Z,12.90
2023-05-05T03:32:25.856Z,12.80
2023-05-05T03:34:58.002Z,12.70
2023-05-05T03:37:33.429Z,12.60
2023-05-05T03:40:02.441Z,12.50
2023-05-05T03:42:34.418Z,12.50
2023-05-05T03:45:03.635Z,12.40
2023-05-05T03:47:33.768Z,12.40
2023-05-05T03:50:05.166Z,12.30
2023-05-05T03:52:40.025Z,12.30
2023-05-05T03:55:11.230Z,12.30
2023-05-05T03:57:40.086Z,12.30
2023-05-05T04:00:11.922Z,12.30
2023-05-05T04:02:48.143Z,12.30
2023-05-05T04:05:19.953Z,12.30
2023-05-05T04:07:50.932Z,12.20
2023-05-05T04:10:19.845Z,12.30
2023-05-05T04:12:49.492Z,12.20
2023-05-05T04:15:18.655Z,12.20
2023-05-05T04:17:47.972Z,12.20
2023-05-05T04:20:18.364Z,12.20
2023-05-05T04:22:47.723Z,12.20
2023-05-05T04:25:18.404Z,12.30
2023-05-05T04:27:50.045Z,12.40
2023-05-05T04:30:19.735Z,12.60
2023-05-05T04:32:48.816Z,12.80
2023-05-05T04:35:18.550Z,13.00
2023-05-05T04:37:47.146Z,13.40
2023-05-05T04:40:15.715Z,13.50
2023-05-05T04:42:52.902Z,13.60
2023-05-05T04:45:21.973Z,13.50
2023-05-05T04:47:50.843Z,13.50
2023-05-05T04:50:19.744Z,13.60
2023-05-05T04:52:50.257Z,13.80
2023-05-05T04:55:20.667Z,14.20
2023-05-05T04:57:51.816Z,14.90
2023-05-05T05:00:20.664Z,15.80
2023-05-05T05:02:49.260Z,16.60
2023-05-05T05:05:18.431Z,17.30
2023-05-05T05:07:47.616Z,17.80
2023-05-05T05:10:16.323Z,18.50
2023-05-05T05:12:48.239Z,18.80
2023-05-05T05:15:18.092Z,18.60
2023-05-05T05:17:46.996Z,18.40
2023-05-05T05:20:17.614Z,18.00
2023-05-05T05:22:46.388Z,17.70
2023-05-05T05:25:18.570Z,17.70
2023-05-05T05:27:58.566Z,17.50
2023-05-05T05:30:42.919Z,17.30
2023-05-05T05:33:13.027Z,17.10
2023-05-05T05:35:44.042Z,17.00
2023-05-05T05:38:13.511Z,16.90
2023-05-05T05:40:42.398Z,16.90
2023-05-05T05:46:17.370Z,17.00
2023-05-05T05:48:46.259Z,17.40
2023-05-05T05:51:16.506Z,17.90
2023-05-05T05:53:45.641Z,18.60
2023-05-05T05:56:22.138Z,19.10
2023-05-05T05:58:52.496Z,19.40
2023-05-05T06:01:23.576Z,19.50
2023-05-05T06:03:52.837Z,20.00
2023-05-05T06:06:22.900Z,20.50
2023-05-05T06:08:52.418Z,21.00
2023-05-05T06:11:23.674Z,21.30
2023-05-05T06:13:54.898Z,21.50
2023-05-05T06:16:27.145Z,21.70
2023-05-05T06:18:56.607Z,21.70
2023-05-05T06:21:25.553Z,21.40
2023-05-05T06:23:57.442Z,21.80
2023-05-05T06:26:28.620Z,22.40
2023-05-05T06:28:58.881Z,22.70
2023-05-05T06:34:33.103Z,23.10
2023-05-05T06:37:05.478Z,23.00
2023-05-05T06:48:41.518Z,23.30
2023-05-05T06:51:10.404Z,23.20
2023-05-05T06:53:39.222Z,23.00
2023-05-05T06:56:09.126Z,22.30
2023-05-05T06:58:38.239Z,21.40
2023-05-05T07:01:07.706Z,20.90
2023-05-05T07:03:38.994Z,20.70
2023-05-05T07:06:07.366Z,21.10
2023-05-05T07:08:36.319Z,21.70
2023-05-05T07:11:05.220Z,22.50
2023-05-05T07:13:34.014Z,22.90
2023-05-05T07:16:02.714Z,23.10
2023-05-05T07:18:32.748Z,23.30
2023-05-05T07:21:02.997Z,23.50
2023-05-05T07:23:31.345Z,23.60
2023-05-05T07:26:03.001Z,23.90
2023-05-05T07:28:33.266Z,24.30
2023-05-05T07:31:02.164Z,24.70
2023-05-05T07:33:31.992Z,25.10
2023-05-05T07:36:03.387Z,25.60
2023-05-05T07:38:32.190Z,25.90
2023-05-05T07:41:00.963Z,25.70
2023-05-05T07:43:30.031Z,25.90
2023-05-05T07:45:59.411Z,26.10
2023-05-05T07:48:30.387Z,26.00
2023-05-05T07:51:03.755Z,26.70
2023-05-05T07:53:34.041Z,26.70
2023-05-05T07:56:04.848Z,26.90
2023-05-05T07:58:33.119Z,27.40
2023-05-05T08:01:06.743Z,27.90
2023-05-05T08:03:35.444Z,27.70
2023-05-05T08:06:10.297Z,27.40
2023-05-05T08:08:40.105Z,26.80
2023-05-05T08:11:08.676Z,26.30
2023-05-05T08:13:38.637Z,25.90
2023-05-05T08:16:08.280Z,25.40
2023-05-05T08:18:38.009Z,25.40
2023-05-05T08:21:06.574Z,25.50
2023-05-05T08:23:35.961Z,25.30
2023-05-05T08:26:07.574Z,24.90
2023-05-05T08:28:36.888Z,25.20
2023-05-05T08:31:05.896Z,26.00
2023-05-05T08:33:52.129Z,27.20
2023-05-05T08:36:20.695Z,27.90
2023-05-05T08:38:51.130Z,28.50
2023-05-05T08:41:21.916Z,28.60
2023-05-05T08:43:50.816Z,27.80
2023-05-05T08:46:19.472Z,27.60
2023-05-05T08:48:50.894Z,26.70
2023-05-05T08:51:24.242Z,25.90
2023-05-05T08:54:02.472Z,25.40
2023-05-05T08:56:35.802Z,25.40
2023-05-05T08:59:05.834Z,26.20
2023-05-05T09:01:36.928Z,27.10
2023-05-05T09:04:08.120Z,28.00
2023-05-05T09:06:37.290Z,29.20
2023-05-05T09:09:06.656Z,30.50
2023-05-05T09:11:38.147Z,31.50
2023-05-05T09:14:06.967Z,32.50
2023-05-05T09:16:35.692Z,31.90
2023-05-05T09:19:07.491Z,31.80
2023-05-05T09:21:38.430Z,32.70
2023-05-05T09:24:12.074Z,33.30
2023-05-05T09:26:43.438Z,33.30
2023-05-05T09:29:20.160Z,32.80
2023-05-05T09:32:06.083Z,31.80
2023-05-05T09:34:36.628Z,30.50
2023-05-05T09:37:06.576Z,29.80
2023-05-05T09:39:36.085Z,29.00
2023-05-05T09:42:08.679Z,28.80
2023-05-05T09:44:39.016Z,29.40
2023-05-05T09:47:18.471Z,31.40
2023-05-05T09:50:03.838Z,33.40
2023-05-05T09:52:32.850Z,34.60
2023-05-05T09:55:04.091Z,34.90
2023-05-05T09:57:36.290Z,35.40
2023-05-05T10:00:11.145Z,36.30
2023-05-05T10:02:40.793Z,38.00
2023-05-05T10:05:14.289Z,38.60
2023-05-05T10:07:44.083Z,39.00
2023-05-05T10:10:17.180Z,39.40
2023-05-05T10:12:53.492Z,38.10
2023-05-05T10:15:22.873Z,37.00
2023-05-05T10:18:06.706Z,36.20
2023-05-05T10:20:37.651Z,36.30
2023-05-05T10:23:09.637Z,36.20
2023-05-05T10:25:48.283Z,36.30
2023-05-05T10:28:25.212Z,36.10
2023-05-05T10:31:00.080Z,36.00
2023-05-05T10:33:37.544Z,36.90
2023-05-05T10:36:07.983Z,36.60
2023-05-05T10:38:39.977Z,35.90
2023-05-05T10:41:13.159Z,36.30
2023-05-05T10:43:44.192Z,36.10
2023-05-05T10:46:12.863Z,35.00
2023-05-05T10:48:48.276Z,34.80
2023-05-05T10:51:39.408Z,35.20
2023-05-05T10:54:18.253Z,35.10
2023-05-05T10:56:51.281Z,33.40
2023-05-05T10:59:48.054Z,32.30
2023-05-05T11:02:29.305Z,31.90
2023-05-05T11:05:21.201Z,31.90
2023-05-05T11:07:53.830Z,32.30
2023-05-05T11:10:23.333Z,33.00
2023-05-05T11:13:22.788Z,33.90
2023-05-05T11:15:55.550Z,32.90
2023-05-05T11:18:43.584Z,32.40
2023-05-05T11:21:17.562Z,32.70
2023-05-05T11:23:54.190Z,32.40
2023-05-05T11:26:59.230Z,32.80
2023-05-05T11:29:28.619Z,33.50
2023-05-05T11:32:20.265Z,34.60
2023-05-05T11:35:05.174Z,34.80
2023-05-05T11:40:57.946Z,35.80
2023-05-05T11:43:27.457Z,36.20
2023-05-05T11:46:12.853Z,35.00
2023-05-05T11:48:50.148Z,34.70
2023-05-05T11:51:20.093Z,33.90
2023-05-05T11:53:50.743Z,33.80
2023-05-05T11:56:22.625Z,33.70
2023-05-05T11:59:11.094Z,33.20
2023-05-05T12:01:42.551Z,32.90
2023-05-05T12:04:17.137Z,33.30
2023-05-05T12:06:46.405Z,34.90
2023-05-05T12:09:17.027Z,35.80
2023-05-05T12:11:57.452Z,35.20
2023-05-05T12:14:29.397Z,34.50
2023-05-05T12:16:59.208Z,34.40
2023-05-05T12:19:33.766Z,34.50
2023-05-05T12:22:03.237Z,35.00
2023-05-05T12:24:33.386Z,35.20
2023-05-05T12:27:09.553Z,35.20
2023-05-05T12:29:39.082Z,35.20
2023-05-05T12:32:07.645Z,36.00
2023-05-05T12:34:38.070Z,35.70
2023-05-05T12:37:07.361Z,35.60
2023-05-05T12:39:38.715Z,35.30
2023-05-05T12:42:08.184Z,34.50
2023-05-05T12:44:38.278Z,34.60
2023-05-05T12:47:07.819Z,33.20
2023-05-05T12:49:49.670Z,33.20
2023-05-05T12:52:19.322Z,33.40
2023-05-05T12:54:56.263Z,33.20
2023-05-05T12:57:25.031Z,33.80
2023-05-05T12:59:54.745Z,33.80
2023-05-05T13:02:36.120Z,33.60
2023-05-05T13:05:08.765Z,33.90
2023-05-05T13:07:39.164Z,34.40
2023-05-05T13:10:10.917Z,34.60
2023-05-05T13:12:39.625Z,34.50
2023-05-05T13:15:10.153Z,34.40
2023-05-05T13:17:42.423Z,33.60
2023-05-05T13:20:14.721Z,33.40
2023-05-05T13:22:44.450Z,33.70
2023-05-05T13:25:12.751Z,34.00
2023-05-05T13:27:43.351Z,34.00
2023-05-05T13:30:13.034Z,34.10
2023-05-05T13:32:42.890Z,34.50
2023-05-05T13:35:15.449Z,35.00
2023-05-05T13:37:47.679Z,35.10
2023-05-05T13:40:16.818Z,35.10
2023-05-05T13:42:45.231Z,34.80
2023-05-05T13:45:15.397Z,34.90
2023-05-05T13:47:46.536Z,34.80
2023-05-05T13:50:16.047Z,34.30
2023-05-05T13:52:44.775Z,33.80
2023-05-05T13:55:14.702Z,33.70
2023-05-05T13:57:43.548Z,33.60
2023-05-05T14:00:12.936Z,33.50
2023-05-05T14:02:42.429Z,33.00
2023-05-05T14:05:11.967Z,32.60
2023-05-05T14:07:44.799Z,32.90
2023-05-05T14:10:14.932Z,33.60
2023-05-05T14:12:44.680Z,34.10
2023-05-05T14:15:13.309Z,34.30
2023-05-05T14:17:42.238Z,33.70
2023-05-05T14:20:11.281Z,33.40
2023-05-05T14:22:42.194Z,32.80
2023-05-05T14:25:10.584Z,32.30
2023-05-05T14:27:39.008Z,31.90
2023-05-05T14:30:10.426Z,31.30
2023-05-05T14:32:39.102Z,31.10
2023-05-05T14:35:09.742Z,30.60
2023-05-05T14:37:38.832Z,30.60
2023-05-05T14:40:12.754Z,30.40
2023-05-05T14:42:41.409Z,30.10
2023-05-05T14:45:11.445Z,29.80
2023-05-05T14:47:41.403Z,29.50
2023-05-05T14:50:11.796Z,29.20
2023-05-05T14:52:40.707Z,28.80
2023-05-05T14:55:14.507Z,28.40
2023-05-05T14:57:43.624Z,28.00
2023-05-05T15:00:13.337Z,27.60
2023-05-05T15:02:45.183Z,27.20
2023-05-05T15:05:13.873Z,26.80
2023-05-05T15:07:42.996Z,26.50
2023-05-05T15:10:17.289Z,26.30
2023-05-05T15:12:46.873Z,26.00
2023-05-05T15:15:15.941Z,25.80
2023-05-05T15:17:44.883Z,25.60
2023-05-05T15:20:15.504Z,25.50
2023-05-05T15:22:44.141Z,25.40
2023-05-05T15:25:16.245Z,25.20
2023-05-05T15:27:45.660Z,24.80
2023-05-05T15:30:15.982Z,24.40
2023-05-05T15:32:44.857Z,24.10
2023-05-05T15:35:13.678Z,23.80
2023-05-05T15:37:42.533Z,23.70
2023-05-05T15:40:14.577Z,23.60
2023-05-05T15:42:48.355Z,23.40
2023-05-05T15:45:20.334Z,23.40
2023-05-05T15:47:50.865Z,23.30
2023-05-05T15:50:20.341Z,23.30
2023-05-05T15:52:50.042Z,23.30
2023-05-05T15:55:21.219Z,23.30
2023-05-05T15:57:51.605Z,23.30
2023-05-05T16:00:23.381Z,23.10
2023-05-05T16:02:52.921Z,22.90
2023-05-05T16:05:23.902Z,23.00
2023-05-05T16:07:54.107Z,22.90
2023-05-05T16:10:26.394Z,22.80
2023-05-05T16:12:57.571Z,22.80
2023-05-05T16:15:28.466Z,22.80
2023-05-05T16:17:57.524Z,22.90
2023-05-05T16:20:26.587Z,22.80
2023-05-05T16:22:55.505Z,22.80
2023-05-05T16:25:24.521Z,22.70
2023-05-05T16:27:56.604Z,22.50
2023-05-05T16:30:28.151Z,22.50
2023-05-05T16:33:00.975Z,22.30
2023-05-05T16:35:29.450Z,22.00
2023-05-05T16:37:59.982Z,21.80
2023-05-05T16:40:30.200Z,21.40
2023-05-05T16:42:59.318Z,21.00
2023-05-05T16:45:33.562Z,20.70
2023-05-05T16:48:02.425Z,20.20
2023-05-05T16:50:31.816Z,19.60
2023-05-05T16:53:05.556Z,19.20
2023-05-05T16:55:36.327Z,18.80
2023-05-05T16:58:06.531Z,18.50
2023-05-05T17:00:40.151Z,18.40
2023-05-05T17:03:08.844Z,18.30
2023-05-05T17:05:39.253Z,18.20
2023-05-05T17:08:08.467Z,18.10
2023-05-05T17:10:37.188Z,17.90
2023-05-05T17:13:05.719Z,17.70
2023-05-05T17:15:34.752Z,17.70
2023-05-05T17:18:05.942Z,17.60
2023-05-05T17:20:36.809Z,17.60
2023-05-05T17:23:08.836Z,17.70
2023-05-05T17:25:38.277Z,17.90
2023-05-05T17:28:08.947Z,18.20
2023-05-05T17:30:38.480Z,18.40
2023-05-05T17:33:09.287Z,18.60
2023-05-05T17:35:38.561Z,18.80
2023-05-05T17:38:07.475Z,18.90
2023-05-05T17:40:38.903Z,19.00
2023-05-05T17:43:11.025Z,19.10
2023-05-05T17:45:43.103Z,19.10
2023-05-05T17:48:17.155Z,19.10
2023-05-05T17:50:46.821Z,19.20
2023-05-05T17:53:16.194Z,19.10
2023-05-05T17:55:46.970Z,19.10
2023-05-05T17:58:17.328Z,19.00
2023-05-05T18:00:46.141Z,19.00
2023-05-05T18:03:16.735Z,18.90
2023-05-05T18:05:45.752Z,18.90
2023-05-05T18:08:14.752Z,18.90
2023-05-05T18:10:44.810Z,18.90
2023-05-05T18:13:14.895Z,19.00
2023-05-05T18:15:46.274Z,19.00
2023-05-05T18:18:17.681Z,19.00
2023-05-05T18:20:46.508Z,19.00
2023-05-05T18:23:17.416Z,18.90
2023-05-05T18:25:49.065Z,18.80
2023-05-05T18:28:18.560Z,18.70
2023-05-05T18:30:47.363Z,18.60
2023-05-05T18:33:17.515Z,18.50
2023-05-05T18:35:46.545Z,18.50
2023-05-05T18:38:15.441Z,18.50
2023-05-05T18:40:46.367Z,18.50
2023-05-05T18:43:15.430Z,18.40
2023-05-05T18:45:44.220Z,18.20
2023-05-05T18:48:13.589Z,18.10
2023-05-05T18:50:51.475Z,18.00
2023-05-05T18:53:20.061Z,17.90
2023-05-05T18:55:49.379Z,17.80
2023-05-05T18:58:20.424Z,17.70
2023-05-05T19:00:52.465Z,17.60
2023-05-05T19:03:22.650Z,17.70
2023-05-05T19:05:52.667Z,17.70
2023-05-05T19:08:24.145Z,17.60
2023-05-05T19:10:53.145Z,17.60
2023-05-05T19:13:22.597Z,17.50
2023-05-05T19:15:53.002Z,17.50
2023-05-05T19:18:22.226Z,17.50
2023-05-05T19:20:52.594Z,17.50
2023-05-05T19:23:21.366Z,17.50
2023-05-05T19:25:52.826Z,17.60
2023-05-05T19:28:23.034Z,17.60
2023-05-05T19:30:54.502Z,17.70
2023-05-05T19:33:23.292Z,17.70
2023-05-05T19:36:01.611Z,17.70
2023-05-05T19:38:30.486Z,17.80
2023-05-05T19:41:00.878Z,17.70
2023-05-05T19:43:30.035Z,17.70
2023-05-05T19:45:59.602Z,17.70
2023-05-05T19:48:31.618Z,17.70
2023-05-05T19:51:04.031Z,17.60
2023-05-05T19:53:33.371Z,17.60
2023-05-05T19:56:07.371Z,17.60
2023-05-05T19:58:56.816Z,17.50
2023-05-05T20:01:31.358Z,17.40
2023-05-05T20:04:03.883Z,17.30
2023-05-05T20:06:40.551Z,17.30
2023-05-05T20:09:10.086Z,17.10
2023-05-05T20:11:42.481Z,17.10
2023-05-05T20:14:11.772Z,17.10
2023-05-05T20:16:42.201Z,17.10
2023-05-05T20:19:14.076Z,17.10
2023-05-05T20:21:47.188Z,17.10
2023-05-05T20:24:18.209Z,17.00
2023-05-05T20:26:47.084Z,17.00
2023-05-05T20:29:16.475Z,16.90
2023-05-05T20:31:48.678Z,16.90
2023-05-05T20:34:17.888Z,16.90
2023-05-05T20:36:49.163Z,16.80
2023-05-05T20:39:18.911Z,16.80
2023-05-05T20:41:48.053Z,16.80
2023-05-05T20:44:17.592Z,16.80
2023-05-05T20:46:46.331Z,16.80
2023-05-05T20:49:16.126Z,16.80
2023-05-05T20:51:45.431Z,16.80
2023-05-05T20:54:16.062Z,16.80
2023-05-05T20:56:46.587Z,16.70
2023-05-05T20:59:17.433Z,16.70
2023-05-05T21:01:46.420Z,16.70
2023-05-05T21:04:20.086Z,16.70
2023-05-05T21:06:48.815Z,16.70
2023-05-05T21:09:21.958Z,16.70
2023-05-05T21:11:50.734Z,16.70
2023-05-05T21:14:20.346Z,16.50
2023-05-05T21:16:51.453Z,16.50
2023-05-05T21:19:21.304Z,16.50
2023-05-05T21:21:53.680Z,16.50
2023-05-05T21:24:24.596Z,16.50
2023-05-05T21:26:53.541Z,16.50
2023-05-05T21:29:23.308Z,16.60
2023-05-05T21:31:52.451Z,16.60
2023-05-05T21:34:23.766Z,16.60
2023-05-05T21:36:52.584Z,16.50
2023-05-05T21:39:23.892Z,16.50
2023-05-05T21:41:55.663Z,16.40
2023-05-05T21:44:25.690Z,16.40
2023-05-05T21:46:54.295Z,16.30
2023-05-05T21:49:24.860Z,16.30
2023-05-05T21:51:56.417Z,16.20
2023-05-05T21:54:29.420Z,16.10
2023-05-05T21:57:07.383Z,16.00
2023-05-05T21:59:36.528Z,15.80
2023-05-05T22:02:06.073Z,15.70
2023-05-05T22:04:35.932Z,15.60
2023-05-05T22:07:05.106Z,15.50
2023-05-05T22:09:33.950Z,15.50
2023-05-05T22:12:08.005Z,15.40
2023-05-05T22:14:38.541Z,15.40
2023-05-05T22:17:09.550Z,15.40
2023-05-05T22:19:38.090Z,15.30
2023-05-05T22:22:07.386Z,15.30
2023-05-05T22:24:36.962Z,15.20
2023-05-05T22:27:07.359Z,15.20
2023-05-05T22:29:37.190Z,15.10
2023-05-05T22:32:09.482Z,15.10
2023-05-05T22:34:39.332Z,15.20
2023-05-05T22:37:11.241Z,15.20
2023-05-05T22:39:42.719Z,15.10
2023-05-05T22:42:13.846Z,15.00
2023-05-05T22:44:43.975Z,15.00
2023-05-05T22:47:13.246Z,14.90
2023-05-05T22:49:49.045Z,14.80
2023-05-05T22:52:19.115Z,14.80
2023-05-05T22:54:50.565Z,14.80
2023-05-05T22:57:20.821Z,14.70
2023-05-05T22:59:50.040Z,14.70
2023-05-05T23:02:21.656Z,14.70
2023-05-05T23:04:51.207Z,14.70
2023-05-05T23:07:20.118Z,14.60
2023-05-05T23:09:51.663Z,14.60
2023-05-05T23:12:23.365Z,14.50
2023-05-05T23:14:52.415Z,14.40
2023-05-05T23:17:22.438Z,14.40
2023-05-05T23:19:51.038Z,14.40
2023-05-05T23:22:21.183Z,14.40
2023-05-05T23:24:51.619Z,14.40
2023-05-05T23:27:22.133Z,14.30
2023-05-05T23:29:52.565Z,14.40
2023-05-05T23:32:21.999Z,14.40
2023-05-05T23:34:52.361Z,14.50
2023-05-05T23:37:20.626Z,14.60
2023-05-05T23:39:49.216Z,14.60
2023-05-05T23:42:17.914Z,14.60
2023-05-05T23:44:55.418Z,14.60
2023-05-05T23:47:24.704Z,14.60
2023-05-05T23:49:53.604Z,14.60
2023-05-05T23:52:22.587Z,14.50
2023-05-05T23:54:52.033Z,14.40
2023-05-05T23:57:21.054Z,14.30
2023-05-05T23:59:52.498Z,14.20
